BAW4LS KLAS-EGLL
Flight info
| Callsign | BAW4LS |
|---|---|
| Flight time | N/A |
| Altitude | 35000 |
| Route | RATPK3 FRNCK DCT EKR DCT MBW DCT DPR/N0487F370 DCT GABOV DCT RIONA DCT 53N085W DCT HELMO DCT PELSI/M084F370 DCT RADUN DCT 61N050W/M084F390 61N040W 60N030W 58N020W DCT SUNOT/N0479F390 DCT KESIX DCT MIMKU DCT KELLY L10 WAL UY53 NUGRA NUGRA2H |
| Aircraft | A35K/H-SBDE1E2E3GHIJ1J3J4J5J6M1M2P2RWXYZ/LB1D1 |
Departure
| Time | 2026-05-04 07:15 |
|---|---|
| Airport | Harry Reid International Airport (KLAS) |
Arrival
| Time | N/A |
|---|---|
| Airport | London Heathrow Airport (EGLL) |
| Time | Latitude | Longitude | Altitude | Speed | Heading |
|---|---|---|---|---|---|
| 2026-05-04 06:56 | 36.08530 | -115.13364 | 2193 ft | 0 kts | 360° |
| 2026-05-04 07:04 | 36.08540 | -115.13364 | 2189 ft | 2 kts | 360° |
| 2026-05-04 07:04 | 36.08514 | -115.13364 | 2197 ft | 4 kts | 2° |
| 2026-05-04 07:05 | 36.08487 | -115.13366 | 2194 ft | 4 kts | 5° |
| 2026-05-04 07:05 | 36.08460 | -115.13370 | 2196 ft | 4 kts | 10° |
| 2026-05-04 07:05 | 36.08434 | -115.13377 | 2194 ft | 4 kts | 19° |
| 2026-05-04 07:05 | 36.08411 | -115.13390 | 2194 ft | 4 kts | 37° |
| 2026-05-04 07:06 | 36.08392 | -115.13412 | 2196 ft | 4 kts | 122° |
| 2026-05-04 07:06 | 36.08384 | -115.13403 | 2196 ft | 5 kts | 136° |
| 2026-05-04 07:06 | 36.08371 | -115.13388 | 2195 ft | 0 kts | 136° |
| 2026-05-04 07:08 | 36.08370 | -115.13386 | 2194 ft | 2 kts | 135° |
| 2026-05-04 07:09 | 36.08345 | -115.13356 | 2198 ft | 6 kts | 135° |
| 2026-05-04 07:09 | 36.08309 | -115.13316 | 2195 ft | 9 kts | 144° |
| 2026-05-04 07:09 | 36.08234 | -115.13292 | 2195 ft | 13 kts | 179° |
| 2026-05-04 07:09 | 36.08146 | -115.13293 | 2197 ft | 13 kts | 180° |
| 2026-05-04 07:10 | 36.08054 | -115.13294 | 2195 ft | 13 kts | 180° |
| 2026-05-04 07:10 | 36.07961 | -115.13295 | 2196 ft | 14 kts | 180° |
| 2026-05-04 07:12 | 36.07830 | -115.12572 | 2193 ft | 18 kts | 89° |
| 2026-05-04 07:12 | 36.07831 | -115.12415 | 2194 ft | 18 kts | 92° |
| 2026-05-04 07:12 | 36.07817 | -115.12262 | 2195 ft | 17 kts | 114° |
| 2026-05-04 07:12 | 36.07745 | -115.12146 | 2196 ft | 16 kts | 141° |
| 2026-05-04 07:13 | 36.07650 | -115.12152 | 2198 ft | 13 kts | 229° |
| 2026-05-04 07:13 | 36.07643 | -115.12225 | 2197 ft | 8 kts | 272° |
| 2026-05-04 07:13 | 36.07643 | -115.12301 | 2194 ft | 9 kts | 264° |
| 2026-05-04 07:14 | 36.07642 | -115.15131 | 2196 ft | 176 kts | 270° |
| 2026-05-04 07:14 | 36.07665 | -115.16735 | 2602 ft | 184 kts | 271° |
| 2026-05-04 07:15 | 36.07747 | -115.18252 | 3442 ft | 172 kts | 274° |
| 2026-05-04 07:15 | 36.07831 | -115.19744 | 3768 ft | 184 kts | 271° |
| 2026-05-04 07:15 | 36.07884 | -115.21395 | 3898 ft | 202 kts | 270° |
| 2026-05-04 07:15 | 36.07896 | -115.23217 | 4074 ft | 223 kts | 268° |
| 2026-05-04 07:16 | 36.07868 | -115.25213 | 4374 ft | 239 kts | 268° |
| 2026-05-04 07:16 | 36.08199 | -115.27244 | 4928 ft | 246 kts | 297° |
| 2026-05-04 07:16 | 36.09435 | -115.28703 | 5592 ft | 254 kts | 333° |
| 2026-05-04 07:16 | 36.11167 | -115.29164 | 6218 ft | 259 kts | 350° |
| 2026-05-04 07:17 | 36.12984 | -115.29523 | 6664 ft | 270 kts | 348° |
| 2026-05-04 07:17 | 36.14899 | -115.29541 | 7081 ft | 283 kts | 14° |
| 2026-05-04 07:17 | 36.16616 | -115.28372 | 7605 ft | 288 kts | 47° |
| 2026-05-04 07:17 | 36.17635 | -115.26286 | 8144 ft | 289 kts | 75° |
| 2026-05-04 07:18 | 36.18208 | -115.23890 | 8827 ft | 293 kts | 77° |
| 2026-05-04 07:18 | 36.18806 | -115.21459 | 9510 ft | 298 kts | 76° |
| 2026-05-04 07:18 | 36.19477 | -115.19005 | 10160 ft | 302 kts | 78° |
| 2026-05-04 07:18 | 36.19741 | -115.16400 | 10533 ft | 310 kts | 94° |
| 2026-05-04 07:19 | 36.19725 | -115.13689 | 11025 ft | 320 kts | 95° |
| 2026-05-04 07:19 | 36.19705 | -115.10888 | 11501 ft | 331 kts | 94° |
| 2026-05-04 07:19 | 36.19690 | -115.07983 | 11870 ft | 344 kts | 94° |
| 2026-05-04 07:19 | 36.19667 | -115.04951 | 12174 ft | 360 kts | 94° |
| 2026-05-04 07:20 | 36.19650 | -115.01781 | 12456 ft | 375 kts | 94° |
| 2026-05-04 07:20 | 36.19643 | -114.99624 | 12696 ft | 382 kts | 93° |
| 2026-05-04 07:20 | 36.19637 | -114.96316 | 13186 ft | 388 kts | 93° |
| 2026-05-04 07:20 | 36.19652 | -114.91856 | 13940 ft | 394 kts | 91° |
| 2026-05-04 07:22 | 36.30208 | -114.72205 | 17466 ft | 435 kts | 51° |
| 2026-05-04 07:22 | 36.32147 | -114.69294 | 17993 ft | 438 kts | 51° |
| 2026-05-04 07:23 | 36.34094 | -114.66362 | 18438 ft | 443 kts | 51° |
| 2026-05-04 07:23 | 36.36086 | -114.63399 | 18769 ft | 451 kts | 49° |
| 2026-05-04 07:23 | 36.38404 | -114.60724 | 19159 ft | 457 kts | 38° |
| 2026-05-04 07:23 | 36.40936 | -114.58301 | 19563 ft | 462 kts | 36° |
| 2026-05-04 07:24 | 36.43513 | -114.55884 | 19929 ft | 468 kts | 36° |
| 2026-05-04 07:24 | 36.46125 | -114.53424 | 20348 ft | 474 kts | 36° |
| 2026-05-04 07:24 | 36.48763 | -114.50930 | 20769 ft | 479 kts | 35° |
| 2026-05-04 07:24 | 36.51412 | -114.48418 | 21165 ft | 485 kts | 35° |
| 2026-05-04 07:25 | 36.54135 | -114.45894 | 21555 ft | 490 kts | 32° |
| 2026-05-04 07:26 | 36.75044 | -114.29602 | 24553 ft | 519 kts | 27° |
| 2026-05-04 07:27 | 36.78119 | -114.27209 | 25041 ft | 521 kts | 27° |
| 2026-05-04 07:27 | 36.81196 | -114.24813 | 25488 ft | 524 kts | 27° |
| 2026-05-04 07:27 | 36.84255 | -114.22429 | 25926 ft | 526 kts | 27° |
| 2026-05-04 07:27 | 36.87366 | -114.20002 | 26376 ft | 528 kts | 27° |
| 2026-05-04 07:28 | 36.90500 | -114.17554 | 26811 ft | 531 kts | 27° |
| 2026-05-04 07:28 | 36.93645 | -114.15096 | 27234 ft | 534 kts | 27° |
| 2026-05-04 07:28 | 36.96805 | -114.12623 | 27666 ft | 536 kts | 27° |
| 2026-05-04 07:28 | 36.99974 | -114.10141 | 28064 ft | 539 kts | 27° |
| 2026-05-04 07:29 | 37.03164 | -114.07640 | 28480 ft | 542 kts | 27° |
| 2026-05-04 07:29 | 37.06374 | -114.05121 | 28865 ft | 545 kts | 27° |
| 2026-05-04 07:29 | 37.09602 | -114.02585 | 29223 ft | 548 kts | 27° |
| 2026-05-04 07:29 | 37.12838 | -114.00039 | 29591 ft | 551 kts | 26° |
| 2026-05-04 07:30 | 37.16096 | -113.97474 | 29928 ft | 554 kts | 26° |
| 2026-05-04 07:30 | 37.19326 | -113.94928 | 30216 ft | 556 kts | 26° |
| 2026-05-04 07:30 | 37.22613 | -113.92334 | 30636 ft | 556 kts | 26° |
| 2026-05-04 07:30 | 37.25877 | -113.89754 | 31064 ft | 555 kts | 26° |
| 2026-05-04 07:31 | 37.29151 | -113.87165 | 31458 ft | 554 kts | 26° |
| 2026-05-04 07:31 | 37.32412 | -113.84584 | 31866 ft | 554 kts | 26° |
| 2026-05-04 07:33 | 37.55033 | -113.66608 | 34385 ft | 549 kts | 25° |
| 2026-05-04 07:33 | 37.58259 | -113.64034 | 34611 ft | 549 kts | 25° |
| 2026-05-04 07:33 | 37.61499 | -113.61447 | 34803 ft | 552 kts | 25° |
| 2026-05-04 07:33 | 37.64738 | -113.58774 | 34829 ft | 561 kts | 29° |
| 2026-05-04 07:34 | 37.67731 | -113.55540 | 34834 ft | 572 kts | 41° |
| 2026-05-04 07:34 | 37.70235 | -113.51599 | 34850 ft | 578 kts | 53° |
| 2026-05-04 07:34 | 37.74446 | -113.42906 | 34889 ft | 581 kts | 57° |
| 2026-05-04 07:35 | 37.78446 | -113.34032 | 34927 ft | 581 kts | 57° |
| 2026-05-04 07:35 | 37.82421 | -113.25204 | 34948 ft | 581 kts | 57° |
| 2026-05-04 07:36 | 37.86455 | -113.16338 | 34949 ft | 581 kts | 57° |
| 2026-05-04 07:38 | 38.00571 | -112.85294 | 34840 ft | 580 kts | 57° |
| 2026-05-04 07:38 | 38.02576 | -112.80856 | 34846 ft | 580 kts | 57° |
| 2026-05-04 07:38 | 38.06564 | -112.72011 | 34852 ft | 580 kts | 57° |
| 2026-05-04 07:39 | 38.10568 | -112.63109 | 34848 ft | 580 kts | 57° |
| 2026-05-04 07:39 | 38.14563 | -112.54200 | 34854 ft | 580 kts | 57° |
| 2026-05-04 07:40 | 38.18557 | -112.45267 | 34860 ft | 580 kts | 57° |
| 2026-05-04 07:40 | 38.22515 | -112.36393 | 34861 ft | 580 kts | 57° |
| 2026-05-04 07:41 | 38.26512 | -112.27407 | 34877 ft | 580 kts | 57° |
| 2026-05-04 07:41 | 38.30452 | -112.18522 | 34882 ft | 580 kts | 57° |
| 2026-05-04 07:42 | 38.34412 | -112.09569 | 34879 ft | 579 kts | 57° |
| 2026-05-04 07:42 | 38.38357 | -112.00621 | 34876 ft | 579 kts | 57° |
| 2026-05-04 07:43 | 38.42301 | -111.91656 | 34888 ft | 579 kts | 57° |
| 2026-05-04 07:43 | 38.46221 | -111.82716 | 34886 ft | 579 kts | 57° |
| 2026-05-04 07:44 | 38.50146 | -111.73738 | 34905 ft | 578 kts | 57° |
| 2026-05-04 07:44 | 38.54066 | -111.64749 | 34894 ft | 578 kts | 57° |
| 2026-05-04 07:45 | 38.57952 | -111.55813 | 34885 ft | 578 kts | 57° |
| 2026-05-04 07:45 | 38.61852 | -111.46815 | 34876 ft | 578 kts | 57° |
| 2026-05-04 07:46 | 38.65745 | -111.37810 | 34868 ft | 577 kts | 57° |
| 2026-05-04 07:46 | 38.69620 | -111.28815 | 34867 ft | 577 kts | 57° |
| 2026-05-04 07:47 | 38.73493 | -111.19809 | 34862 ft | 576 kts | 58° |
| 2026-05-04 07:49 | 38.88830 | -110.83879 | 34853 ft | 573 kts | 58° |
| 2026-05-04 07:49 | 38.92631 | -110.74908 | 34849 ft | 572 kts | 58° |
| 2026-05-04 07:50 | 38.96430 | -110.65918 | 34843 ft | 572 kts | 58° |
| 2026-05-04 07:50 | 39.00216 | -110.56929 | 34835 ft | 571 kts | 58° |
| 2026-05-04 07:51 | 39.03968 | -110.47997 | 34827 ft | 570 kts | 58° |
| 2026-05-04 07:51 | 39.07726 | -110.39028 | 34822 ft | 569 kts | 59° |
| 2026-05-04 07:52 | 39.11474 | -110.30054 | 34822 ft | 568 kts | 59° |
| 2026-05-04 07:52 | 39.15212 | -110.21077 | 34822 ft | 568 kts | 59° |
| 2026-05-04 07:54 | 39.30034 | -109.85226 | 34836 ft | 565 kts | 59° |
| 2026-05-04 07:55 | 39.33721 | -109.76243 | 34834 ft | 564 kts | 59° |
| 2026-05-04 07:55 | 39.37390 | -109.67279 | 34833 ft | 564 kts | 59° |
| 2026-05-04 07:56 | 39.41027 | -109.58369 | 34830 ft | 563 kts | 60° |
| 2026-05-04 07:56 | 39.44678 | -109.49397 | 34818 ft | 563 kts | 60° |
| 2026-05-04 07:57 | 39.48315 | -109.40429 | 34817 ft | 562 kts | 60° |
| 2026-05-04 07:57 | 39.51939 | -109.31467 | 34807 ft | 561 kts | 60° |
| 2026-05-04 07:58 | 39.55556 | -109.22497 | 34805 ft | 561 kts | 60° |
| 2026-05-04 07:58 | 39.59162 | -109.13530 | 34797 ft | 560 kts | 60° |
| 2026-05-04 07:59 | 39.62732 | -109.04624 | 34797 ft | 558 kts | 60° |
| 2026-05-04 07:59 | 39.66304 | -108.95684 | 34796 ft | 557 kts | 60° |
| 2026-05-04 08:00 | 39.69864 | -108.86752 | 34797 ft | 555 kts | 60° |
| 2026-05-04 08:02 | 39.83886 | -108.51310 | 34809 ft | 548 kts | 60° |
| 2026-05-04 08:02 | 39.87355 | -108.42475 | 34812 ft | 547 kts | 60° |
| 2026-05-04 08:03 | 39.90813 | -108.33645 | 34818 ft | 546 kts | 60° |
| 2026-05-04 08:03 | 39.94264 | -108.24807 | 34866 ft | 544 kts | 60° |
| 2026-05-04 08:04 | 39.97662 | -108.16076 | 34920 ft | 543 kts | 60° |
| 2026-05-04 08:04 | 40.01071 | -108.07297 | 34965 ft | 542 kts | 61° |
| 2026-05-04 08:05 | 40.04469 | -107.98533 | 35008 ft | 540 kts | 60° |
| 2026-05-04 08:05 | 40.08825 | -107.90691 | 35014 ft | 529 kts | 40° |
| 2026-05-04 08:06 | 40.14367 | -107.84461 | 35004 ft | 524 kts | 34° |
| 2026-05-04 08:06 | 40.19105 | -107.79530 | 34972 ft | 522 kts | 34° |
| 2026-05-04 08:08 | 40.41724 | -107.55861 | 34995 ft | 518 kts | 35° |
| 2026-05-04 08:11 | 40.66851 | -107.29172 | 34967 ft | 514 kts | 35° |
| 2026-05-04 08:11 | 40.75188 | -107.20260 | 34929 ft | 513 kts | 35° |
| 2026-05-04 08:12 | 40.80733 | -107.14316 | 34900 ft | 513 kts | 36° |
| 2026-05-04 08:12 | 40.86258 | -107.08381 | 34880 ft | 512 kts | 36° |
| 2026-05-04 08:13 | 40.91749 | -107.02468 | 34875 ft | 512 kts | 36° |
| 2026-05-04 08:13 | 40.97269 | -106.96510 | 34883 ft | 512 kts | 36° |
| 2026-05-04 08:14 | 41.02784 | -106.90546 | 34872 ft | 512 kts | 36° |
| 2026-05-04 08:16 | 41.24836 | -106.66559 | 34923 ft | 512 kts | 36° |
| 2026-05-04 08:16 | 41.30301 | -106.60582 | 34926 ft | 511 kts | 36° |
| 2026-05-04 08:17 | 41.35788 | -106.54566 | 34919 ft | 511 kts | 36° |
| 2026-05-04 08:17 | 41.41280 | -106.48532 | 34900 ft | 510 kts | 36° |
| 2026-05-04 08:19 | 41.63089 | -106.24433 | 34806 ft | 508 kts | 36° |
| 2026-05-04 08:20 | 41.68536 | -106.18380 | 34812 ft | 508 kts | 36° |
| 2026-05-04 08:20 | 41.73977 | -106.12321 | 34806 ft | 508 kts | 35° |
| 2026-05-04 08:21 | 41.79372 | -106.06299 | 34812 ft | 508 kts | 35° |
| 2026-05-04 08:21 | 41.84810 | -106.00216 | 34812 ft | 508 kts | 35° |
| 2026-05-04 08:22 | 41.90121 | -105.93912 | 34813 ft | 510 kts | 38° |
| 2026-05-04 08:24 | 42.10850 | -105.68002 | 34803 ft | 508 kts | 38° |
| 2026-05-04 08:24 | 42.16044 | -105.61545 | 34803 ft | 508 kts | 38° |
| 2026-05-04 08:25 | 42.21228 | -105.55079 | 34795 ft | 507 kts | 38° |
| 2026-05-04 08:25 | 42.26406 | -105.48607 | 34794 ft | 506 kts | 39° |
| 2026-05-04 08:27 | 42.46952 | -105.22771 | 34816 ft | 503 kts | 39° |
| 2026-05-04 08:28 | 42.52070 | -105.16296 | 34827 ft | 502 kts | 40° |
| 2026-05-04 08:28 | 42.57171 | -105.09828 | 34826 ft | 502 kts | 40° |
| 2026-05-04 08:29 | 42.62239 | -105.03386 | 34829 ft | 501 kts | 40° |
| 2026-05-04 08:31 | 42.82546 | -104.77426 | 34819 ft | 500 kts | 40° |
| 2026-05-04 08:33 | 43.02708 | -104.51405 | 34830 ft | 499 kts | 40° |
| 2026-05-04 08:35 | 43.22762 | -104.25277 | 34833 ft | 497 kts | 40° |
| 2026-05-04 08:35 | 43.27764 | -104.18721 | 34825 ft | 497 kts | 40° |
| 2026-05-04 08:37 | 43.45207 | -103.95736 | 34830 ft | 495 kts | 40° |
| 2026-05-04 08:38 | 43.50138 | -103.89203 | 34836 ft | 495 kts | 40° |
| 2026-05-04 08:38 | 43.55098 | -103.82617 | 34844 ft | 494 kts | 40° |
| 2026-05-04 08:40 | 43.74845 | -103.56234 | 34881 ft | 493 kts | 40° |
| 2026-05-04 08:41 | 43.79742 | -103.49651 | 34872 ft | 493 kts | 40° |
| 2026-05-04 08:41 | 43.84654 | -103.43031 | 34841 ft | 493 kts | 40° |
| 2026-05-04 08:42 | 43.89570 | -103.36391 | 34810 ft | 493 kts | 40° |
| 2026-05-04 08:42 | 43.94487 | -103.29733 | 34772 ft | 493 kts | 40° |
| 2026-05-04 08:43 | 43.99395 | -103.23071 | 34779 ft | 494 kts | 40° |
| 2026-05-04 08:43 | 44.04303 | -103.16394 | 34791 ft | 494 kts | 40° |
| 2026-05-04 08:44 | 44.09210 | -103.09701 | 34785 ft | 494 kts | 40° |
| 2026-05-04 08:46 | 44.28821 | -102.82789 | 34742 ft | 495 kts | 40° |
| 2026-05-04 08:46 | 44.33718 | -102.76027 | 34722 ft | 496 kts | 40° |
| 2026-05-04 08:47 | 44.38603 | -102.69264 | 34719 ft | 497 kts | 40° |
| 2026-05-04 08:47 | 44.43522 | -102.62438 | 34717 ft | 497 kts | 40° |
| 2026-05-04 08:48 | 44.48433 | -102.55605 | 34717 ft | 498 kts | 39° |
| 2026-05-04 08:48 | 44.53325 | -102.48782 | 34711 ft | 499 kts | 39° |
| 2026-05-04 08:49 | 44.58245 | -102.41905 | 34710 ft | 500 kts | 39° |
| 2026-05-04 08:50 | 44.75532 | -102.17594 | 34703 ft | 504 kts | 39° |
| 2026-05-04 08:51 | 44.80492 | -102.10578 | 34697 ft | 506 kts | 39° |
| 2026-05-04 08:51 | 44.85465 | -102.03525 | 34698 ft | 506 kts | 39° |
| 2026-05-04 08:52 | 44.90396 | -101.96514 | 34693 ft | 507 kts | 39° |
| 2026-05-04 08:52 | 44.95356 | -101.89442 | 34694 ft | 507 kts | 39° |
| 2026-05-04 08:54 | 45.14167 | -101.62087 | 35844 ft | 504 kts | 41° |
| 2026-05-04 08:55 | 45.16533 | -101.58424 | 36100 ft | 504 kts | 41° |
| 2026-05-04 08:55 | 45.18904 | -101.54754 | 36351 ft | 504 kts | 41° |
| 2026-05-04 08:55 | 45.21279 | -101.51087 | 36586 ft | 504 kts | 41° |
| 2026-05-04 08:55 | 45.23666 | -101.47413 | 36676 ft | 507 kts | 41° |
| 2026-05-04 09:01 | 45.73980 | -100.69192 | 36658 ft | 512 kts | 40° |
| 2026-05-04 09:01 | 45.78768 | -100.61631 | 36655 ft | 512 kts | 40° |
| 2026-05-04 09:02 | 45.83548 | -100.54060 | 36658 ft | 512 kts | 40° |
| 2026-05-04 09:02 | 45.88327 | -100.46471 | 36649 ft | 513 kts | 40° |
| 2026-05-04 09:03 | 45.93112 | -100.38852 | 36651 ft | 513 kts | 40° |
| 2026-05-04 09:03 | 45.97860 | -100.31270 | 36647 ft | 513 kts | 40° |
| 2026-05-04 09:04 | 46.02628 | -100.23635 | 36653 ft | 513 kts | 41° |
| 2026-05-04 09:04 | 46.07404 | -100.15966 | 36649 ft | 514 kts | 40° |
| 2026-05-04 09:05 | 46.12181 | -100.08275 | 36646 ft | 514 kts | 41° |
| 2026-05-04 09:05 | 46.16954 | -100.00569 | 36659 ft | 514 kts | 41° |
| 2026-05-04 09:06 | 46.21715 | -99.92858 | 36646 ft | 515 kts | 41° |
| 2026-05-04 09:08 | 46.40722 | -99.61861 | 36643 ft | 516 kts | 41° |
| 2026-05-04 09:08 | 46.45479 | -99.54047 | 36643 ft | 517 kts | 41° |
| 2026-05-04 09:09 | 46.50231 | -99.46221 | 36640 ft | 517 kts | 41° |
| 2026-05-04 09:09 | 46.54986 | -99.38364 | 36637 ft | 518 kts | 41° |
| 2026-05-04 09:10 | 46.59744 | -99.30482 | 36640 ft | 518 kts | 41° |
| 2026-05-04 09:10 | 46.64493 | -99.22591 | 36636 ft | 519 kts | 41° |
| 2026-05-04 09:11 | 46.69227 | -99.14702 | 36632 ft | 520 kts | 41° |
| 2026-05-04 09:11 | 46.73979 | -99.06762 | 36625 ft | 520 kts | 41° |
| 2026-05-04 09:12 | 46.78733 | -98.98794 | 36617 ft | 521 kts | 42° |
| 2026-05-04 09:14 | 46.97722 | -98.66730 | 36606 ft | 523 kts | 42° |
| 2026-05-04 09:14 | 47.02481 | -98.58634 | 36613 ft | 523 kts | 42° |
| 2026-05-04 09:15 | 47.07231 | -98.50530 | 36601 ft | 524 kts | 42° |
| 2026-05-04 09:15 | 47.11947 | -98.42460 | 36594 ft | 524 kts | 43° |
| 2026-05-04 09:17 | 47.33285 | -98.05643 | 36582 ft | 525 kts | 43° |
| 2026-05-04 09:18 | 47.37991 | -97.97455 | 36574 ft | 526 kts | 43° |
| 2026-05-04 09:18 | 47.42710 | -97.89220 | 36572 ft | 526 kts | 43° |
| 2026-05-04 09:19 | 47.47439 | -97.80942 | 36570 ft | 527 kts | 43° |
| 2026-05-04 09:19 | 47.52165 | -97.72645 | 36564 ft | 527 kts | 44° |
| 2026-05-04 09:20 | 47.56891 | -97.64325 | 36559 ft | 529 kts | 44° |
| 2026-05-04 09:20 | 47.61628 | -97.55957 | 36556 ft | 529 kts | 44° |
| 2026-05-04 09:21 | 47.66335 | -97.47615 | 36542 ft | 530 kts | 44° |
| 2026-05-04 09:21 | 47.71066 | -97.39205 | 36528 ft | 531 kts | 44° |
| 2026-05-04 09:22 | 47.75809 | -97.30747 | 36520 ft | 531 kts | 44° |
| 2026-05-04 09:22 | 47.80505 | -97.22347 | 36516 ft | 531 kts | 44° |
| 2026-05-04 09:23 | 47.85225 | -97.13879 | 36513 ft | 531 kts | 44° |
| 2026-05-04 09:23 | 47.89941 | -97.05390 | 36509 ft | 531 kts | 44° |
| 2026-05-04 09:25 | 48.08687 | -96.71382 | 36495 ft | 530 kts | 45° |
| 2026-05-04 09:26 | 48.13356 | -96.62845 | 36498 ft | 529 kts | 45° |
| 2026-05-04 09:26 | 48.18013 | -96.54302 | 36494 ft | 529 kts | 45° |
| 2026-05-04 09:27 | 48.22663 | -96.45746 | 36488 ft | 529 kts | 46° |
| 2026-05-04 09:27 | 48.27306 | -96.37174 | 36487 ft | 529 kts | 46° |
| 2026-05-04 09:28 | 48.31940 | -96.28592 | 36487 ft | 529 kts | 46° |
| 2026-05-04 09:28 | 48.36571 | -96.19989 | 36484 ft | 529 kts | 46° |
| 2026-05-04 09:29 | 48.41187 | -96.11387 | 36480 ft | 528 kts | 46° |
| 2026-05-04 09:29 | 48.45767 | -96.02825 | 36478 ft | 528 kts | 46° |
| 2026-05-04 09:30 | 48.50364 | -95.94200 | 36474 ft | 528 kts | 46° |
| 2026-05-04 09:30 | 48.54966 | -95.85540 | 36464 ft | 528 kts | 46° |
| 2026-05-04 09:31 | 48.59551 | -95.76882 | 36448 ft | 527 kts | 47° |
| 2026-05-04 09:31 | 48.64128 | -95.68212 | 36421 ft | 527 kts | 47° |
| 2026-05-04 09:32 | 48.68694 | -95.59537 | 36422 ft | 527 kts | 47° |
| 2026-05-04 09:34 | 48.86897 | -95.24666 | 36385 ft | 527 kts | 47° |
| 2026-05-04 09:34 | 48.91428 | -95.15914 | 36392 ft | 527 kts | 47° |
| 2026-05-04 09:35 | 48.95924 | -95.07201 | 36397 ft | 527 kts | 47° |
| 2026-05-04 09:35 | 49.00443 | -94.98416 | 36398 ft | 526 kts | 47° |
| 2026-05-04 09:37 | 49.18440 | -94.63139 | 36378 ft | 526 kts | 48° |
| 2026-05-04 09:38 | 49.22887 | -94.54351 | 36370 ft | 526 kts | 48° |
| 2026-05-04 09:38 | 49.27381 | -94.45438 | 36360 ft | 525 kts | 48° |
| 2026-05-04 09:39 | 49.31813 | -94.36621 | 36364 ft | 525 kts | 48° |
| 2026-05-04 09:39 | 49.36274 | -94.27715 | 36364 ft | 525 kts | 49° |
| 2026-05-04 09:40 | 49.40718 | -94.18814 | 36352 ft | 525 kts | 49° |
| 2026-05-04 09:40 | 49.45134 | -94.09939 | 36347 ft | 525 kts | 49° |
| 2026-05-04 09:42 | 49.64767 | -93.79818 | 36322 ft | 519 kts | 39° |
| 2026-05-04 09:43 | 49.70003 | -93.72140 | 36303 ft | 519 kts | 39° |
| 2026-05-04 09:43 | 49.75228 | -93.64437 | 36312 ft | 519 kts | 39° |
| 2026-05-04 09:44 | 49.80416 | -93.56762 | 36305 ft | 519 kts | 40° |
| 2026-05-04 09:46 | 50.01241 | -93.25717 | 36295 ft | 519 kts | 40° |
| 2026-05-04 09:46 | 50.06432 | -93.17918 | 36288 ft | 519 kts | 40° |
| 2026-05-04 09:47 | 50.11586 | -93.10150 | 36286 ft | 519 kts | 40° |
| 2026-05-04 09:49 | 50.32251 | -92.78754 | 36274 ft | 518 kts | 41° |
| 2026-05-04 09:51 | 50.49376 | -92.49710 | 36264 ft | 524 kts | 54° |
| 2026-05-04 09:51 | 50.53205 | -92.39952 | 36262 ft | 524 kts | 56° |
| 2026-05-04 09:52 | 50.56953 | -92.30100 | 36266 ft | 524 kts | 56° |
| 2026-05-04 09:52 | 50.60696 | -92.20249 | 36257 ft | 524 kts | 56° |
| 2026-05-04 09:53 | 50.64446 | -92.10400 | 36248 ft | 524 kts | 56° |
| 2026-05-04 09:53 | 50.68170 | -92.00601 | 36243 ft | 524 kts | 56° |
| 2026-05-04 09:54 | 50.71904 | -91.90741 | 36238 ft | 523 kts | 56° |
| 2026-05-04 09:54 | 50.75632 | -91.80858 | 36243 ft | 523 kts | 57° |
| 2026-05-04 09:55 | 50.79351 | -91.70957 | 36237 ft | 523 kts | 57° |
| 2026-05-04 09:55 | 50.83057 | -91.61051 | 36232 ft | 523 kts | 57° |
| 2026-05-04 09:56 | 50.86755 | -91.51132 | 36233 ft | 523 kts | 57° |
| 2026-05-04 09:56 | 50.90426 | -91.41245 | 36230 ft | 523 kts | 57° |
| 2026-05-04 09:57 | 50.94106 | -91.31295 | 36228 ft | 523 kts | 57° |
| 2026-05-04 09:57 | 50.97782 | -91.21320 | 36221 ft | 523 kts | 57° |
| 2026-05-04 09:58 | 51.01444 | -91.11340 | 36217 ft | 523 kts | 57° |
| 2026-05-04 09:58 | 51.05100 | -91.01340 | 36214 ft | 523 kts | 58° |
| 2026-05-04 10:00 | 51.19630 | -90.61203 | 36203 ft | 522 kts | 58° |
| 2026-05-04 10:04 | 51.44622 | -89.90651 | 36164 ft | 520 kts | 59° |
| 2026-05-04 10:04 | 51.48153 | -89.80521 | 36172 ft | 519 kts | 59° |
| 2026-05-04 10:05 | 51.51672 | -89.70385 | 36183 ft | 519 kts | 59° |
| 2026-05-04 10:05 | 51.55159 | -89.60303 | 36187 ft | 519 kts | 59° |
| 2026-05-04 10:06 | 51.58656 | -89.50150 | 36182 ft | 519 kts | 59° |
| 2026-05-04 10:06 | 51.62146 | -89.39975 | 36191 ft | 519 kts | 60° |
| 2026-05-04 10:08 | 51.74252 | -89.04363 | 36194 ft | 518 kts | 60° |
| 2026-05-04 10:08 | 51.77689 | -88.94157 | 36196 ft | 518 kts | 60° |
| 2026-05-04 10:09 | 51.81121 | -88.83925 | 36198 ft | 518 kts | 60° |
| 2026-05-04 10:09 | 51.84546 | -88.73670 | 36207 ft | 518 kts | 60° |
| 2026-05-04 10:10 | 51.87959 | -88.63413 | 36210 ft | 518 kts | 60° |
| 2026-05-04 10:10 | 51.91367 | -88.53126 | 36212 ft | 518 kts | 61° |
| 2026-05-04 10:11 | 51.94741 | -88.42899 | 36215 ft | 518 kts | 61° |
| 2026-05-04 10:11 | 51.98128 | -88.32591 | 36224 ft | 518 kts | 61° |
| 2026-05-04 10:12 | 52.01504 | -88.22273 | 36235 ft | 517 kts | 61° |
| 2026-05-04 10:12 | 52.04873 | -88.11932 | 36239 ft | 517 kts | 61° |
| 2026-05-04 10:13 | 52.08225 | -88.01602 | 36200 ft | 517 kts | 61° |
| 2026-05-04 10:13 | 52.11578 | -87.91225 | 36196 ft | 517 kts | 61° |
| 2026-05-04 10:14 | 52.14913 | -87.80858 | 36194 ft | 517 kts | 62° |
| 2026-05-04 10:16 | 52.28128 | -87.39347 | 36303 ft | 515 kts | 62° |
| 2026-05-04 10:16 | 52.31410 | -87.28927 | 36324 ft | 515 kts | 62° |
| 2026-05-04 10:17 | 52.34655 | -87.18580 | 36337 ft | 514 kts | 62° |
| 2026-05-04 10:19 | 52.47605 | -86.76847 | 36367 ft | 512 kts | 63° |
| 2026-05-04 10:19 | 52.50790 | -86.66472 | 36374 ft | 512 kts | 63° |
| 2026-05-04 10:20 | 52.53985 | -86.56020 | 36384 ft | 512 kts | 63° |
| 2026-05-04 10:20 | 52.57171 | -86.45549 | 36394 ft | 512 kts | 63° |
| 2026-05-04 10:21 | 52.60351 | -86.35057 | 36398 ft | 512 kts | 63° |
| 2026-05-04 10:21 | 52.63516 | -86.24565 | 36406 ft | 512 kts | 63° |
| 2026-05-04 10:22 | 52.68251 | -86.08783 | 36416 ft | 512 kts | 63° |
| 2026-05-04 10:23 | 52.71391 | -85.98260 | 36425 ft | 512 kts | 63° |
| 2026-05-04 10:25 | 52.83844 | -85.56061 | 36450 ft | 511 kts | 63° |
| 2026-05-04 10:25 | 52.86937 | -85.45464 | 36456 ft | 511 kts | 63° |
| 2026-05-04 10:26 | 52.90001 | -85.34916 | 36465 ft | 510 kts | 64° |
| 2026-05-04 10:26 | 52.93068 | -85.24314 | 36464 ft | 510 kts | 64° |
| 2026-05-04 10:27 | 52.96124 | -85.13701 | 36464 ft | 509 kts | 64° |
| 2026-05-04 10:27 | 52.98651 | -85.04891 | 36473 ft | 509 kts | 64° |
| 2026-05-04 10:28 | 53.02044 | -84.94600 | 36474 ft | 508 kts | 58° |
| 2026-05-04 10:28 | 53.05703 | -84.84518 | 36479 ft | 509 kts | 58° |
| 2026-05-04 10:29 | 53.09375 | -84.74502 | 36480 ft | 511 kts | 58° |
| 2026-05-04 10:29 | 53.13072 | -84.64372 | 36485 ft | 511 kts | 58° |
| 2026-05-04 10:30 | 53.16752 | -84.54220 | 36486 ft | 511 kts | 58° |
| 2026-05-04 10:30 | 53.20412 | -84.44073 | 36493 ft | 510 kts | 58° |
| 2026-05-04 10:31 | 53.24064 | -84.33903 | 36494 ft | 510 kts | 58° |
| 2026-05-04 10:32 | 53.36749 | -83.98267 | 36501 ft | 510 kts | 59° |
| 2026-05-04 10:33 | 53.40353 | -83.88045 | 36499 ft | 510 kts | 59° |
| 2026-05-04 10:33 | 53.43953 | -83.77795 | 36499 ft | 509 kts | 59° |
| 2026-05-04 10:34 | 53.47541 | -83.67539 | 36504 ft | 509 kts | 59° |
| 2026-05-04 10:34 | 53.51119 | -83.57267 | 36507 ft | 509 kts | 59° |
| 2026-05-04 10:35 | 53.54685 | -83.46986 | 36509 ft | 509 kts | 59° |
| 2026-05-04 10:35 | 53.58221 | -83.36751 | 36496 ft | 509 kts | 59° |
| 2026-05-04 10:36 | 53.61777 | -83.26413 | 36509 ft | 509 kts | 59° |
| 2026-05-04 10:36 | 53.65313 | -83.16092 | 36501 ft | 509 kts | 60° |
| 2026-05-04 10:37 | 53.68849 | -83.05725 | 36516 ft | 509 kts | 60° |
| 2026-05-04 10:37 | 53.72370 | -82.95363 | 36512 ft | 509 kts | 60° |
| 2026-05-04 10:39 | 53.84601 | -82.59013 | 36524 ft | 508 kts | 60° |
| 2026-05-04 10:40 | 53.88082 | -82.48568 | 36527 ft | 508 kts | 60° |
| 2026-05-04 10:40 | 53.91553 | -82.38111 | 36538 ft | 508 kts | 60° |
| 2026-05-04 10:41 | 53.94989 | -82.27712 | 36533 ft | 508 kts | 60° |
| 2026-05-04 10:41 | 53.98441 | -82.17222 | 36541 ft | 508 kts | 60° |
| 2026-05-04 10:42 | 54.01884 | -82.06711 | 36539 ft | 509 kts | 60° |
| 2026-05-04 10:42 | 54.05324 | -81.96168 | 36546 ft | 509 kts | 61° |
| 2026-05-04 10:43 | 54.08758 | -81.85595 | 36547 ft | 510 kts | 61° |
| 2026-05-04 10:45 | 54.22404 | -81.43122 | 36551 ft | 510 kts | 61° |
| 2026-05-04 10:45 | 54.25776 | -81.32509 | 36555 ft | 510 kts | 62° |
| 2026-05-04 10:46 | 54.29160 | -81.21812 | 36559 ft | 511 kts | 62° |
| 2026-05-04 10:46 | 54.32531 | -81.11109 | 36562 ft | 510 kts | 62° |
| 2026-05-04 10:47 | 54.35899 | -81.00369 | 36564 ft | 511 kts | 62° |
| 2026-05-04 10:47 | 54.39251 | -80.89631 | 36567 ft | 510 kts | 62° |
| 2026-05-04 10:49 | 54.52545 | -80.46562 | 36581 ft | 510 kts | 62° |
| 2026-05-04 10:50 | 54.55829 | -80.35802 | 36587 ft | 510 kts | 63° |
| 2026-05-04 10:52 | 54.68935 | -79.92367 | 36588 ft | 509 kts | 63° |
| 2026-05-04 10:52 | 54.72160 | -79.81556 | 36596 ft | 509 kts | 63° |
| 2026-05-04 10:54 | 54.85055 | -79.37828 | 36605 ft | 509 kts | 64° |
| 2026-05-04 10:56 | 54.97767 | -78.93908 | 36613 ft | 509 kts | 64° |
| 2026-05-04 10:57 | 55.00925 | -78.82866 | 36616 ft | 509 kts | 64° |
| 2026-05-04 10:57 | 55.04068 | -78.71825 | 36620 ft | 509 kts | 64° |
| 2026-05-04 10:58 | 55.07210 | -78.60737 | 36618 ft | 509 kts | 64° |
| 2026-05-04 10:58 | 55.10319 | -78.49711 | 36621 ft | 509 kts | 64° |
| 2026-05-04 10:59 | 55.13440 | -78.38588 | 36619 ft | 509 kts | 65° |
| 2026-05-04 10:59 | 55.16552 | -78.27447 | 36625 ft | 509 kts | 65° |
| 2026-05-04 11:00 | 55.19651 | -78.16297 | 36630 ft | 509 kts | 65° |
| 2026-05-04 11:02 | 55.31920 | -77.71617 | 36634 ft | 509 kts | 65° |
| 2026-05-04 11:05 | 55.54509 | -76.86994 | 36699 ft | 509 kts | 66° |
| 2026-05-04 11:06 | 55.57481 | -76.75622 | 36696 ft | 509 kts | 66° |
| 2026-05-04 11:06 | 55.60438 | -76.64248 | 36697 ft | 509 kts | 66° |